FDX208 EGHI-EGJB
Flight info
| Callsign | FDX208 |
|---|---|
| Flight time | 0h 48m |
| Altitude | 8000 |
| Route | THRED Q41 ORTAC |
| Aircraft | C208/L-SDFGR/C |
Departure
| Time | 2026-04-30 18:45 |
|---|---|
| Airport | Southampton Airport (EGHI) |
Arrival
| Time | 2026-04-30 19:33 |
|---|---|
| Airport | Guernsey Airport (EGJB) |
| Time | Latitude | Longitude | Altitude | Speed | Heading |
|---|---|---|---|---|---|
| 2026-04-30 18:21 | 50.94967 | -1.36108 | 46 ft | 0 kts | 19° |
| 2026-04-30 18:34 | 50.94970 | -1.36096 | 46 ft | 1 kts | 108° |
| 2026-04-30 18:34 | 50.94961 | -1.36065 | 46 ft | 4 kts | 113° |
| 2026-04-30 18:35 | 50.94952 | -1.36028 | 46 ft | 4 kts | 101° |
| 2026-04-30 18:35 | 50.94956 | -1.35994 | 46 ft | 0 kts | 54° |
| 2026-04-30 18:36 | 50.94961 | -1.35985 | 47 ft | 2 kts | 48° |
| 2026-04-30 18:37 | 50.94981 | -1.35962 | 47 ft | 6 kts | 27° |
| 2026-04-30 18:37 | 50.95029 | -1.35936 | 48 ft | 7 kts | 17° |
| 2026-04-30 18:37 | 50.95053 | -1.35911 | 48 ft | 4 kts | 69° |
| 2026-04-30 18:37 | 50.95052 | -1.35865 | 48 ft | 0 kts | 109° |
| 2026-04-30 18:39 | 50.95050 | -1.35856 | 48 ft | 3 kts | 111° |
| 2026-04-30 18:39 | 50.95036 | -1.35800 | 47 ft | 8 kts | 111° |
| 2026-04-30 18:39 | 50.95019 | -1.35714 | 45 ft | 9 kts | 90° |
| 2026-04-30 18:40 | 50.95084 | -1.35646 | 44 ft | 14 kts | 20° |
| 2026-04-30 18:40 | 50.95182 | -1.35595 | 46 ft | 16 kts | 19° |
| 2026-04-30 18:40 | 50.95296 | -1.35532 | 46 ft | 18 kts | 19° |
| 2026-04-30 18:40 | 50.95410 | -1.35468 | 51 ft | 17 kts | 19° |
| 2026-04-30 18:41 | 50.95523 | -1.35406 | 50 ft | 17 kts | 19° |
| 2026-04-30 18:41 | 50.95633 | -1.35344 | 58 ft | 17 kts | 19° |
| 2026-04-30 18:41 | 50.95705 | -1.35347 | 55 ft | 10 kts | 22° |
| 2026-04-30 18:41 | 50.95709 | -1.35303 | 56 ft | 0 kts | 134° |
| 2026-04-30 18:42 | 50.95681 | -1.35314 | 54 ft | 13 kts | 211° |
| 2026-04-30 18:42 | 50.95670 | -1.35323 | 58 ft | 8 kts | 202° |
| 2026-04-30 18:42 | 50.95195 | -1.35593 | 139 ft | 112 kts | 197° |
| 2026-04-30 18:45 | 50.85896 | -1.41990 | 2929 ft | 152 kts | 197° |
| 2026-04-30 18:45 | 50.84928 | -1.42651 | 3181 ft | 152 kts | 198° |
| 2026-04-30 18:45 | 50.83959 | -1.43310 | 3431 ft | 151 kts | 198° |
| 2026-04-30 18:46 | 50.82996 | -1.43967 | 3679 ft | 150 kts | 198° |
| 2026-04-30 18:46 | 50.82040 | -1.44617 | 3927 ft | 150 kts | 198° |
| 2026-04-30 18:46 | 50.81081 | -1.45271 | 4179 ft | 150 kts | 199° |
| 2026-04-30 18:46 | 50.80124 | -1.45921 | 4427 ft | 150 kts | 200° |
| 2026-04-30 18:47 | 50.79165 | -1.46574 | 4671 ft | 151 kts | 200° |
| 2026-04-30 18:47 | 50.78201 | -1.47230 | 4932 ft | 150 kts | 199° |
| 2026-04-30 18:47 | 50.77238 | -1.47885 | 5179 ft | 150 kts | 199° |
| 2026-04-30 18:47 | 50.76283 | -1.48533 | 5425 ft | 148 kts | 199° |
| 2026-04-30 18:48 | 50.75335 | -1.49178 | 5671 ft | 149 kts | 200° |
| 2026-04-30 18:48 | 50.74385 | -1.49821 | 5907 ft | 149 kts | 200° |
| 2026-04-30 18:48 | 50.73440 | -1.50465 | 6162 ft | 147 kts | 199° |
| 2026-04-30 18:48 | 50.72504 | -1.51098 | 6419 ft | 147 kts | 200° |
| 2026-04-30 18:49 | 50.71569 | -1.51733 | 6667 ft | 146 kts | 200° |
| 2026-04-30 18:49 | 50.70637 | -1.52363 | 6901 ft | 146 kts | 200° |
| 2026-04-30 18:49 | 50.69709 | -1.52994 | 7144 ft | 145 kts | 200° |
| 2026-04-30 18:49 | 50.68792 | -1.53612 | 7383 ft | 146 kts | 200° |
| 2026-04-30 18:50 | 50.67848 | -1.54252 | 7633 ft | 146 kts | 200° |
| 2026-04-30 18:50 | 50.66924 | -1.54877 | 7874 ft | 146 kts | 200° |
| 2026-04-30 18:50 | 50.65992 | -1.55507 | 8109 ft | 148 kts | 200° |
| 2026-04-30 18:50 | 50.65006 | -1.56171 | 8119 ft | 159 kts | 200° |
| 2026-04-30 18:51 | 50.63969 | -1.56875 | 8120 ft | 165 kts | 200° |
| 2026-04-30 18:51 | 50.62908 | -1.57591 | 8121 ft | 168 kts | 201° |
| 2026-04-30 18:51 | 50.61828 | -1.58322 | 8113 ft | 169 kts | 201° |
| 2026-04-30 18:51 | 50.60750 | -1.59050 | 8114 ft | 168 kts | 200° |
| 2026-04-30 18:52 | 50.59677 | -1.59773 | 8113 ft | 167 kts | 200° |
| 2026-04-30 18:52 | 50.58603 | -1.60497 | 8111 ft | 168 kts | 200° |
| 2026-04-30 18:52 | 50.57528 | -1.61220 | 8113 ft | 168 kts | 200° |
| 2026-04-30 18:52 | 50.56460 | -1.61941 | 8113 ft | 166 kts | 199° |
| 2026-04-30 18:53 | 50.55400 | -1.62653 | 8117 ft | 166 kts | 200° |
| 2026-04-30 18:53 | 50.54336 | -1.63368 | 8116 ft | 167 kts | 200° |
| 2026-04-30 18:53 | 50.53266 | -1.64088 | 8117 ft | 168 kts | 201° |
| 2026-04-30 18:53 | 50.52188 | -1.64812 | 8119 ft | 169 kts | 200° |
| 2026-04-30 18:54 | 50.51112 | -1.65535 | 8115 ft | 168 kts | 200° |
| 2026-04-30 18:54 | 50.50038 | -1.66256 | 8116 ft | 169 kts | 201° |
| 2026-04-30 18:54 | 50.48959 | -1.66989 | 8112 ft | 169 kts | 201° |
| 2026-04-30 18:54 | 50.47891 | -1.67733 | 8112 ft | 168 kts | 201° |
| 2026-04-30 18:55 | 50.46816 | -1.68475 | 8110 ft | 169 kts | 201° |
| 2026-04-30 18:55 | 50.44692 | -1.69941 | 8110 ft | 168 kts | 201° |
| 2026-04-30 18:55 | 50.43607 | -1.70689 | 8107 ft | 168 kts | 200° |
| 2026-04-30 18:56 | 50.41492 | -1.72145 | 8112 ft | 166 kts | 200° |
| 2026-04-30 18:56 | 50.40435 | -1.72873 | 8107 ft | 166 kts | 200° |
| 2026-04-30 18:56 | 50.39373 | -1.73601 | 8109 ft | 167 kts | 200° |
| 2026-04-30 18:57 | 50.37232 | -1.75073 | 8107 ft | 168 kts | 200° |
| 2026-04-30 18:57 | 50.36161 | -1.75809 | 8107 ft | 168 kts | 200° |
| 2026-04-30 18:57 | 50.35084 | -1.76547 | 8107 ft | 170 kts | 201° |
| 2026-04-30 18:58 | 50.32917 | -1.78035 | 8108 ft | 170 kts | 200° |
| 2026-04-30 18:58 | 50.31836 | -1.78776 | 8108 ft | 169 kts | 200° |
| 2026-04-30 18:58 | 50.30765 | -1.79509 | 8105 ft | 168 kts | 200° |
| 2026-04-30 18:59 | 50.28618 | -1.80978 | 8105 ft | 167 kts | 199° |
| 2026-04-30 19:00 | 50.25412 | -1.83170 | 8103 ft | 167 kts | 200° |
| 2026-04-30 19:00 | 50.24340 | -1.83901 | 8108 ft | 169 kts | 200° |
| 2026-04-30 19:00 | 50.22194 | -1.85366 | 8104 ft | 168 kts | 200° |
| 2026-04-30 19:01 | 50.20041 | -1.86834 | 8100 ft | 170 kts | 200° |
| 2026-04-30 19:01 | 50.18958 | -1.87571 | 8100 ft | 170 kts | 200° |
| 2026-04-30 19:02 | 50.16802 | -1.89039 | 8103 ft | 169 kts | 200° |
| 2026-04-30 19:02 | 50.14644 | -1.90507 | 8104 ft | 169 kts | 200° |
| 2026-04-30 19:03 | 50.12486 | -1.91973 | 8098 ft | 169 kts | 200° |
| 2026-04-30 19:03 | 50.10340 | -1.93429 | 8098 ft | 170 kts | 200° |
| 2026-04-30 19:04 | 50.08177 | -1.94895 | 8100 ft | 169 kts | 200° |
| 2026-04-30 19:04 | 50.06012 | -1.96362 | 8102 ft | 170 kts | 200° |
| 2026-04-30 19:05 | 50.03848 | -1.97827 | 8095 ft | 169 kts | 200° |
| 2026-04-30 19:05 | 50.01689 | -1.99287 | 8097 ft | 170 kts | 200° |
| 2026-04-30 19:06 | 49.99640 | -2.01087 | 8099 ft | 174 kts | 220° |
| 2026-04-30 19:06 | 49.98871 | -2.02562 | 8098 ft | 177 kts | 228° |
| 2026-04-30 19:06 | 49.97371 | -2.05576 | 8098 ft | 176 kts | 227° |
| 2026-04-30 19:07 | 49.95863 | -2.08592 | 8099 ft | 177 kts | 228° |
| 2026-04-30 19:07 | 49.95108 | -2.10100 | 8100 ft | 177 kts | 227° |
| 2026-04-30 19:08 | 49.93205 | -2.12208 | 8082 ft | 170 kts | 191° |
| 2026-04-30 19:08 | 49.90914 | -2.13001 | 8089 ft | 170 kts | 189° |
| 2026-04-30 19:08 | 49.89759 | -2.13394 | 8090 ft | 170 kts | 190° |
| 2026-04-30 19:09 | 49.87452 | -2.14173 | 8092 ft | 170 kts | 190° |
| 2026-04-30 19:09 | 49.86296 | -2.14562 | 8094 ft | 170 kts | 190° |
| 2026-04-30 19:09 | 49.85140 | -2.14954 | 8094 ft | 170 kts | 189° |
| 2026-04-30 19:10 | 49.82832 | -2.15731 | 8095 ft | 170 kts | 189° |
| 2026-04-30 19:10 | 49.80523 | -2.16511 | 8098 ft | 170 kts | 190° |
| 2026-04-30 19:11 | 49.79367 | -2.16900 | 8100 ft | 170 kts | 189° |
| 2026-04-30 19:11 | 49.77005 | -2.17694 | 7851 ft | 177 kts | 190° |
| 2026-04-30 19:11 | 49.75791 | -2.18098 | 7653 ft | 180 kts | 190° |
| 2026-04-30 19:12 | 49.74563 | -2.18503 | 7457 ft | 180 kts | 190° |
| 2026-04-30 19:12 | 49.73386 | -2.18894 | 7260 ft | 168 kts | 190° |
| 2026-04-30 19:12 | 49.72275 | -2.19264 | 7067 ft | 163 kts | 190° |
| 2026-04-30 19:13 | 49.70072 | -2.20025 | 6676 ft | 160 kts | 190° |
| 2026-04-30 19:13 | 49.67921 | -2.20771 | 6282 ft | 159 kts | 190° |
| 2026-04-30 19:13 | 49.66844 | -2.21142 | 6079 ft | 158 kts | 190° |
| 2026-04-30 19:14 | 49.65769 | -2.21513 | 5882 ft | 158 kts | 190° |
| 2026-04-30 19:14 | 49.64700 | -2.21878 | 5675 ft | 157 kts | 190° |
| 2026-04-30 19:14 | 49.63630 | -2.22241 | 5475 ft | 157 kts | 190° |
| 2026-04-30 19:14 | 49.62561 | -2.22600 | 5279 ft | 157 kts | 190° |
| 2026-04-30 19:15 | 49.61495 | -2.22962 | 5079 ft | 157 kts | 190° |
| 2026-04-30 19:15 | 49.59370 | -2.23667 | 4678 ft | 156 kts | 190° |
| 2026-04-30 19:15 | 49.58308 | -2.24013 | 4474 ft | 156 kts | 190° |
| 2026-04-30 19:16 | 49.57250 | -2.24359 | 4280 ft | 155 kts | 190° |
| 2026-04-30 19:16 | 49.56192 | -2.24700 | 4084 ft | 156 kts | 190° |
| 2026-04-30 19:16 | 49.54067 | -2.25374 | 4023 ft | 156 kts | 190° |
| 2026-04-30 19:17 | 49.53002 | -2.25710 | 4021 ft | 156 kts | 189° |
| 2026-04-30 19:17 | 49.50869 | -2.26382 | 4021 ft | 156 kts | 189° |
| 2026-04-30 19:17 | 49.49805 | -2.26718 | 4021 ft | 156 kts | 189° |
| 2026-04-30 19:18 | 49.48376 | -2.27183 | 4006 ft | 157 kts | 190° |
| 2026-04-30 19:18 | 49.46600 | -2.27769 | 4006 ft | 157 kts | 190° |
| 2026-04-30 19:18 | 49.45531 | -2.28121 | 4006 ft | 157 kts | 190° |
| 2026-04-30 19:19 | 49.44464 | -2.28470 | 4005 ft | 157 kts | 190° |
| 2026-04-30 19:19 | 49.43395 | -2.28823 | 4005 ft | 157 kts | 190° |
| 2026-04-30 19:19 | 49.41621 | -2.29404 | 4006 ft | 157 kts | 190° |
| 2026-04-30 19:20 | 49.40194 | -2.29871 | 4007 ft | 157 kts | 190° |
| 2026-04-30 19:20 | 49.39486 | -2.30103 | 4004 ft | 157 kts | 190° |
| 2026-04-30 19:20 | 49.37512 | -2.31380 | 4008 ft | 165 kts | 232° |
| 2026-04-30 19:21 | 49.37216 | -2.33110 | 4004 ft | 173 kts | 262° |
| 2026-04-30 19:21 | 49.37156 | -2.36821 | 4004 ft | 174 kts | 265° |
| 2026-04-30 19:22 | 49.37108 | -2.40532 | 4003 ft | 174 kts | 265° |
| 2026-04-30 19:22 | 49.37036 | -2.46105 | 4004 ft | 174 kts | 265° |
| 2026-04-30 19:23 | 49.36965 | -2.51646 | 4002 ft | 174 kts | 265° |
| 2026-04-30 19:24 | 49.36917 | -2.55374 | 4003 ft | 174 kts | 265° |
| 2026-04-30 19:24 | 49.36894 | -2.57205 | 4000 ft | 174 kts | 265° |
| 2026-04-30 19:24 | 49.36843 | -2.60947 | 4001 ft | 174 kts | 264° |
| 2026-04-30 19:25 | 49.36771 | -2.66522 | 4001 ft | 174 kts | 265° |
| 2026-04-30 19:26 | 49.36723 | -2.70201 | 3955 ft | 175 kts | 265° |
| 2026-04-30 19:26 | 49.36687 | -2.73852 | 3706 ft | 169 kts | 265° |
| 2026-04-30 19:26 | 49.36671 | -2.75644 | 3583 ft | 167 kts | 264° |
| 2026-04-30 19:27 | 49.37006 | -2.79139 | 3352 ft | 176 kts | 303° |
| 2026-04-30 19:27 | 49.39271 | -2.80289 | 3111 ft | 179 kts | 359° |
| 2026-04-30 19:28 | 49.40517 | -2.80342 | 2982 ft | 179 kts | 360° |
| 2026-04-30 19:28 | 49.42758 | -2.79204 | 2744 ft | 172 kts | 48° |
| 2026-04-30 19:29 | 49.43149 | -2.75933 | 2236 ft | 156 kts | 98° |
| 2026-04-30 19:29 | 49.43138 | -2.74386 | 1984 ft | 130 kts | 96° |
| 2026-04-30 19:30 | 49.43194 | -2.71154 | 1574 ft | 88 kts | 96° |
| 2026-04-30 19:30 | 49.43244 | -2.69371 | 1357 ft | 79 kts | 98° |
| 2026-04-30 19:31 | 49.43294 | -2.67651 | 1130 ft | 82 kts | 94° |
| 2026-04-30 19:31 | 49.43328 | -2.66797 | 1010 ft | 80 kts | 91° |
| 2026-04-30 19:31 | 49.43377 | -2.65121 | 897 ft | 78 kts | 95° |
| 2026-04-30 19:32 | 49.43382 | -2.64285 | 743 ft | 76 kts | 92° |
| 2026-04-30 19:32 | 49.43407 | -2.63485 | 657 ft | 73 kts | 90° |
| 2026-04-30 19:32 | 49.43433 | -2.62700 | 526 ft | 73 kts | 91° |
| 2026-04-30 19:32 | 49.43451 | -2.61935 | 428 ft | 71 kts | 91° |
| 2026-04-30 19:33 | 49.43471 | -2.61182 | 331 ft | 68 kts | 91° |
| 2026-04-30 19:33 | 49.43486 | -2.60559 | 312 ft | 43 kts | 87° |
| 2026-04-30 19:33 | 49.43504 | -2.60159 | 316 ft | 32 kts | 86° |
| 2026-04-30 19:33 | 49.43504 | -2.59893 | 321 ft | 16 kts | 110° |
| 2026-04-30 19:34 | 49.43429 | -2.59860 | 322 ft | 9 kts | 179° |
| 2026-04-30 19:34 | 49.43399 | -2.59859 | 322 ft | 0 kts | 178° |
| 2026-04-30 19:34 | 49.43345 | -2.59814 | 323 ft | 8 kts | 89° |
| 2026-04-30 19:35 | 49.43359 | -2.59720 | 324 ft | 10 kts | 81° |
| 2026-04-30 19:35 | 49.43362 | -2.59612 | 326 ft | 10 kts | 87° |
| 2026-04-30 19:35 | 49.43366 | -2.59499 | 328 ft | 11 kts | 87° |
| 2026-04-30 19:35 | 49.43370 | -2.59381 | 329 ft | 11 kts | 87° |
| 2026-04-30 19:36 | 49.43372 | -2.59296 | 330 ft | 7 kts | 90° |
| 2026-04-30 19:36 | 49.43351 | -2.59260 | 331 ft | 4 kts | 187° |
| 2026-04-30 19:36 | 49.43320 | -2.59262 | 331 ft | 0 kts | 78° |